Time;durP1;ratioP1;P1;durP2;ratioP2;P2;SDS_P1;SDS_P2;PMS_P1;PMS_P2;Temp;Humidity;BMP_temperature;BMP_pressure;BME280_temperature;BME280_humidity;BME280_pressure;Samples;Min_cycle;Max_cycle;Signal;HPM_P1;HPM_P2
2023/06/10 00:01:11;;;;;;;13.73;11.00;;;18.80;99.90;;;;;;5008771;28;20889;-74
2023/06/10 00:03:38;;;;;;;12.93;10.80;;;18.90;99.90;;;;;;5010966;28;20503;-71
2023/06/10 00:06:06;;;;;;;13.03;10.73;;;18.70;99.90;;;;;;5009006;28;20469;-71
2023/06/10 00:08:33;;;;;;;13.57;10.47;;;18.70;99.90;;;;;;5007115;28;20441;-71
2023/06/10 00:11:00;;;;;;;15.50;11.97;;;18.70;99.90;;;;;;5003782;28;20440;-71
2023/06/10 00:13:26;;;;;;;16.30;12.00;;;18.70;99.90;;;;;;5004792;28;20458;-71
2023/06/10 00:15:53;;;;;;;13.37;11.00;;;18.60;99.90;;;;;;5007651;28;20479;-71
2023/06/10 00:18:21;;;;;;;12.70;10.50;;;18.60;99.90;;;;;;5008973;28;20545;-71
2023/06/10 00:20:48;;;;;;;12.03;10.77;;;18.50;99.90;;;;;;5007104;28;20962;-72
2023/06/10 00:23:17;;;;;;;13.03;11.53;;;18.50;99.90;;;;;;5006123;28;20482;-71
2023/06/10 00:25:43;;;;;;;14.70;10.50;;;18.50;99.90;;;;;;5003510;28;20460;-71
2023/06/10 00:28:10;;;;;;;16.77;11.30;;;18.50;99.90;;;;;;5009628;28;20463;-71
2023/06/10 00:30:37;;;;;;;11.53;10.10;;;18.50;99.90;;;;;;5008897;28;20484;-72
2023/06/10 00:33:03;;;;;;;12.20;10.70;;;18.40;99.90;;;;;;5007596;28;20516;-74
2023/06/10 00:35:30;;;;;;;19.10;11.50;;;18.40;99.90;;;;;;5005666;28;20845;-71
2023/06/10 00:37:57;;;;;;;11.93;10.73;;;18.40;99.90;;;;;;5009447;28;20432;-71
2023/06/10 00:40:25;;;;;;;13.83;11.00;;;18.40;99.90;;;;;;5003256;28;20520;-71
2023/06/10 00:42:51;;;;;;;13.13;10.13;;;18.30;99.90;;;;;;5009239;28;20507;-74
2023/06/10 00:45:18;;;;;;;16.63;11.17;;;18.30;99.90;;;;;;5008786;28;20430;-74
2023/06/10 00:47:45;;;;;;;18.60;10.87;;;18.30;99.90;;;;;;5007495;28;20460;-71
2023/06/10 00:50:12;;;;;;;17.53;10.97;;;18.30;99.90;;;;;;5002615;28;20437;-72
2023/06/10 00:52:38;;;;;;;14.83;11.90;;;18.30;99.90;;;;;;5003061;28;20487;-72
2023/06/10 00:55:07;;;;;;;12.83;10.80;;;18.30;99.90;;;;;;5009125;28;20487;-72
2023/06/10 00:57:35;;;;;;;13.30;10.30;;;18.20;99.90;;;;;;5009033;28;20782;-72
2023/06/10 01:00:07;;;;;;;13.77;10.70;;;18.20;99.90;;;;;;5006126;28;20461;-72
2023/06/10 01:02:33;;;;;;;14.93;10.90;;;18.20;99.90;;;;;;5005257;28;20445;-72
2023/06/10 01:05:01;;;;;;;12.20;10.90;;;18.20;99.90;;;;;;5003028;28;20948;-74
2023/06/10 01:07:38;;;;;;;13.17;11.80;;;18.20;99.90;;;;;;4998966;28;20462;-72
2023/06/10 01:10:10;;;;;;;17.60;11.50;;;18.20;99.90;;;;;;5008292;28;20424;-72
2023/06/10 01:12:48;;;;;;;13.40;11.57;;;18.20;99.90;;;;;;5008262;28;20965;-74
2023/06/10 01:15:15;;;;;;;13.77;10.63;;;18.10;99.90;;;;;;5004416;28;20429;-72
2023/06/10 01:17:58;;;;;;;14.10;10.93;;;18.10;99.90;;;;;;5006557;28;20428;-72
2023/06/10 01:20:27;;;;;;;13.73;11.10;;;18.00;99.90;;;;;;5003284;28;20437;-72
2023/06/10 01:22:55;;;;;;;12.57;11.37;;;18.00;99.90;;;;;;5009657;28;20448;-72
2023/06/10 01:25:27;;;;;;;12.33;10.87;;;17.90;99.90;;;;;;5006930;28;20429;-72
2023/06/10 01:27:57;;;;;;;12.20;10.57;;;17.90;99.90;;;;;;5010244;28;20547;-72
2023/06/10 01:30:30;;;;;;;16.63;11.10;;;17.90;99.90;;;;;;5004223;28;20429;-72
2023/06/10 01:33:00;;;;;;;13.00;10.90;;;17.80;99.90;;;;;;5005504;28;20489;-73
2023/06/10 01:35:28;;;;;;;13.57;10.77;;;17.80;99.90;;;;;;5004163;28;20454;-72
2023/06/10 01:37:59;;;;;;;13.33;10.50;;;17.80;99.90;;;;;;5007864;28;20937;-72
2023/06/10 01:40:27;;;;;;;13.43;11.10;;;17.80;99.90;;;;;;5008267;28;20444;-72
2023/06/10 01:42:54;;;;;;;13.70;11.40;;;17.70;99.90;;;;;;5005263;28;20445;-72
2023/06/10 01:45:20;;;;;;;12.80;11.50;;;17.70;99.90;;;;;;5007538;28;20467;-72
2023/06/10 01:47:47;;;;;;;13.90;11.23;;;17.60;99.90;;;;;;5002709;28;20900;-72
2023/06/10 01:50:14;;;;;;;14.43;11.73;;;17.60;99.90;;;;;;5001786;28;20460;-72
2023/06/10 01:52:40;;;;;;;12.80;11.30;;;17.60;99.90;;;;;;5007324;28;20512;-72
2023/06/10 01:55:09;;;;;;;12.93;10.93;;;17.50;99.90;;;;;;5007223;28;20519;-72
2023/06/10 01:57:35;;;;;;;20.97;11.50;;;17.50;99.90;;;;;;5002386;28;20451;-72
2023/06/10 02:00:03;;;;;;;13.43;11.43;;;17.50;99.90;;;;;;5006008;28;20908;-74
2023/06/10 02:02:29;;;;;;;12.93;11.00;;;17.40;99.90;;;;;;5013408;28;20476;-72
2023/06/10 02:04:57;;;;;;;14.83;11.67;;;17.40;99.90;;;;;;5011445;28;20462;-72
2023/06/10 02:07:23;;;;;;;16.40;11.80;;;17.40;99.90;;;;;;5009301;28;20505;-72
2023/06/10 02:09:50;;;;;;;12.70;11.23;;;17.40;99.90;;;;;;5005525;28;20436;-72
2023/06/10 02:12:18;;;;;;;12.50;11.23;;;17.30;99.90;;;;;;5003858;28;20481;-72
2023/06/10 02:14:45;;;;;;;11.10;10.00;;;17.30;99.90;;;;;;5010341;28;20930;-73
2023/06/10 02:17:14;;;;;;;17.57;12.37;;;17.30;99.90;;;;;;5010755;28;20425;-73
2023/06/10 02:19:42;;;;;;;12.33;10.77;;;17.20;99.90;;;;;;5009988;28;20429;-73
2023/06/10 02:22:09;;;;;;;12.93;10.93;;;17.20;99.90;;;;;;5008281;28;20501;-73
2023/06/10 02:24:37;;;;;;;14.53;10.80;;;17.20;99.90;;;;;;5007175;28;20457;-72
2023/06/10 02:27:06;;;;;;;13.30;11.87;;;17.20;99.90;;;;;;5003194;28;20486;-73
2023/06/10 02:29:34;;;;;;;14.30;11.30;;;17.20;99.90;;;;;;5011947;28;20466;-72
2023/06/10 02:32:01;;;;;;;12.40;10.90;;;17.10;99.90;;;;;;5012713;28;20528;-73
2023/06/10 02:34:28;;;;;;;15.90;11.40;;;17.10;99.90;;;;;;5005388;28;20466;-72
2023/06/10 02:36:55;;;;;;;12.30;11.00;;;17.10;99.90;;;;;;5006938;28;20525;-73
2023/06/10 02:39:22;;;;;;;13.40;11.90;;;17.00;99.90;;;;;;5004658;28;20906;-73
2023/06/10 02:41:49;;;;;;;11.63;10.43;;;17.00;99.90;;;;;;5009454;28;20481;-73
2023/06/10 02:44:15;;;;;;;21.00;12.40;;;17.00;99.90;;;;;;5010484;28;20514;-73
2023/06/10 02:46:43;;;;;;;14.13;10.83;;;17.00;99.90;;;;;;5013175;28;20704;-73
2023/06/10 02:49:10;;;;;;;16.73;11.67;;;17.00;99.90;;;;;;5008798;28;20513;-73
2023/06/10 02:51:37;;;;;;;14.80;11.40;;;16.90;99.90;;;;;;5007086;28;20437;-72
2023/06/10 02:54:03;;;;;;;13.17;11.77;;;17.00;99.90;;;;;;5005228;28;20458;-72
2023/06/10 02:56:31;;;;;;;14.70;11.50;;;16.90;99.90;;;;;;5012376;28;20500;-73
2023/06/10 02:58:58;;;;;;;15.97;11.70;;;16.90;99.90;;;;;;5009809;28;20435;-73
2023/06/10 03:01:24;;;;;;;16.80;11.83;;;16.90;99.90;;;;;;5000881;28;20506;-73
2023/06/10 03:03:52;;;;;;;13.40;11.33;;;16.90;99.90;;;;;;5006202;28;20475;-73
2023/06/10 03:06:19;;;;;;;15.47;12.10;;;16.90;99.90;;;;;;5005353;28;20512;-73
2023/06/10 03:08:46;;;;;;;15.10;11.47;;;16.90;99.90;;;;;;5012699;28;20458;-73
2023/06/10 03:11:13;;;;;;;15.87;11.80;;;16.90;99.90;;;;;;5008229;28;20458;-73
2023/06/10 03:13:39;;;;;;;20.23;11.50;;;16.90;99.90;;;;;;5007872;28;20525;-73
2023/06/10 03:16:07;;;;;;;16.93;11.53;;;16.90;99.90;;;;;;5009507;28;20458;-73
2023/06/10 03:18:34;;;;;;;13.20;11.80;;;16.90;99.90;;;;;;5003596;28;20481;-73
2023/06/10 03:21:02;;;;;;;15.93;11.73;;;16.90;99.90;;;;;;5010142;28;20976;-73
2023/06/10 03:23:29;;;;;;;14.13;12.23;;;16.80;99.90;;;;;;5010401;28;20487;-73
2023/06/10 03:25:56;;;;;;;13.10;11.63;;;16.80;99.90;;;;;;5011759;28;20458;-73
2023/06/10 03:28:22;;;;;;;19.23;12.07;;;16.80;99.90;;;;;;5005652;28;20513;-73
2023/06/10 03:30:49;;;;;;;14.40;11.73;;;16.90;99.90;;;;;;5009939;28;20458;-73
2023/06/10 03:33:16;;;;;;;15.27;12.40;;;16.80;99.90;;;;;;5008961;28;20456;-73
2023/06/10 03:35:42;;;;;;;20.60;12.47;;;16.70;99.90;;;;;;5011369;28;20450;-73
2023/06/10 03:38:10;;;;;;;16.93;12.57;;;16.80;99.90;;;;;;5009511;28;20447;-73
2023/06/10 03:40:37;;;;;;;17.20;12.30;;;16.80;99.90;;;;;;5006507;28;21061;-73
2023/06/10 03:43:04;;;;;;;15.77;12.00;;;16.80;99.90;;;;;;5006314;28;20508;-73
2023/06/10 03:45:31;;;;;;;17.33;12.53;;;16.80;99.90;;;;;;5004790;28;20455;-73
2023/06/10 03:47:58;;;;;;;18.27;11.93;;;16.70;99.90;;;;;;5011450;28;20500;-73
2023/06/10 03:50:26;;;;;;;14.13;11.50;;;16.80;99.90;;;;;;5009761;28;20479;-73
2023/06/10 03:52:52;;;;;;;12.93;11.57;;;16.70;99.90;;;;;;5011769;28;20904;-73
2023/06/10 03:55:21;;;;;;;12.50;10.80;;;16.80;99.90;;;;;;5006805;28;20516;-72
2023/06/10 03:57:48;;;;;;;14.17;11.70;;;16.70;99.90;;;;;;5005506;28;20477;-73
2023/06/10 04:00:17;;;;;;;16.10;11.60;;;16.70;99.90;;;;;;5007681;28;20537;-73
2023/06/10 04:02:48;;;;;;;12.57;11.23;;;16.70;99.90;;;;;;5010288;28;20511;-73
2023/06/10 04:05:15;;;;;;;14.70;12.30;;;16.70;99.90;;;;;;5008472;28;20458;-73
2023/06/10 04:07:42;;;;;;;14.77;11.23;;;16.70;99.90;;;;;;5002168;28;20545;-73
2023/06/10 04:10:10;;;;;;;14.33;11.90;;;16.70;99.90;;;;;;5005161;28;20549;-72
2023/06/10 04:12:38;;;;;;;15.10;12.70;;;16.80;99.90;;;;;;5004248;28;20474;-73
2023/06/10 04:15:06;;;;;;;15.33;12.40;;;16.80;99.90;;;;;;5010447;28;20481;-73
2023/06/10 04:17:33;;;;;;;12.60;11.10;;;16.80;99.90;;;;;;5008926;28;20943;-73
2023/06/10 04:20:00;;;;;;;15.87;11.67;;;16.80;99.90;;;;;;5007554;28;20433;-73
2023/06/10 04:22:27;;;;;;;14.30;11.50;;;16.80;99.90;;;;;;5002905;28;20566;-73
2023/06/10 04:24:53;;;;;;;17.70;12.00;;;16.90;99.90;;;;;;5006698;28;20489;-73
2023/06/10 04:27:20;;;;;;;15.50;11.30;;;16.90;99.90;;;;;;5010521;28;21045;-73
2023/06/10 04:29:48;;;;;;;13.53;11.00;;;16.90;99.90;;;;;;5010056;28;20455;-73
2023/06/10 04:32:15;;;;;;;15.17;11.17;;;16.90;99.90;;;;;;5007135;28;20528;-73
2023/06/10 04:34:42;;;;;;;17.60;11.83;;;17.00;99.90;;;;;;5010256;28;20462;-73
2023/06/10 04:37:09;;;;;;;12.40;10.97;;;17.00;99.90;;;;;;5008832;28;20522;-74
2023/06/10 04:39:35;;;;;;;15.23;11.30;;;17.10;99.90;;;;;;5006357;28;20466;-74
2023/06/10 04:42:02;;;;;;;15.10;11.30;;;17.20;99.90;;;;;;5000002;28;20474;-74
2023/06/10 04:44:30;;;;;;;18.47;13.07;;;17.20;99.90;;;;;;5008298;28;20455;-74
2023/06/10 04:46:58;;;;;;;13.10;11.37;;;17.30;99.90;;;;;;5007102;28;20489;-74
2023/06/10 04:49:25;;;;;;;13.00;11.47;;;17.40;99.90;;;;;;5007570;28;20459;-74
2023/06/10 04:51:52;;;;;;;14.23;11.50;;;17.40;99.90;;;;;;5002439;28;20830;-74
2023/06/10 04:54:18;;;;;;;15.00;9.97;;;17.50;99.90;;;;;;5002915;28;20458;-74
2023/06/10 04:56:45;;;;;;;15.33;10.53;;;17.60;99.90;;;;;;5009709;28;20453;-73
2023/06/10 04:59:12;;;;;;;12.23;11.00;;;17.70;99.90;;;;;;5007783;28;20508;-73
2023/06/10 05:01:38;;;;;;;14.60;11.30;;;17.80;99.90;;;;;;5006153;28;20504;-73
2023/06/10 05:04:06;;;;;;;13.30;10.60;;;17.80;99.90;;;;;;5004877;28;20508;-73
2023/06/10 05:06:33;;;;;;;14.97;11.23;;;17.90;99.90;;;;;;4998374;28;20516;-73
2023/06/10 05:09:00;;;;;;;15.73;11.17;;;18.00;99.90;;;;;;5010622;28;20482;-73
2023/06/10 05:11:26;;;;;;;14.30;11.47;;;18.00;99.90;;;;;;5008355;28;20463;-73
2023/06/10 05:13:53;;;;;;;15.73;10.70;;;18.10;99.90;;;;;;5008028;28;20458;-74
2023/06/10 05:16:19;;;;;;;12.67;10.87;;;18.10;99.90;;;;;;5005745;28;20465;-74
2023/06/10 05:18:46;;;;;;;13.83;10.53;;;18.10;99.90;;;;;;5005025;28;20454;-74
2023/06/10 05:21:15;;;;;;;17.10;10.97;;;18.20;99.90;;;;;;5002853;28;20465;-74
2023/06/10 05:23:42;;;;;;;12.90;10.73;;;18.30;99.90;;;;;;5008426;28;20899;-73
2023/06/10 05:26:09;;;;;;;15.90;12.00;;;18.40;99.90;;;;;;5007566;28;20433;-71
2023/06/10 05:28:35;;;;;;;13.73;10.40;;;18.40;99.90;;;;;;5005174;28;20473;-72
2023/06/10 05:31:02;;;;;;;13.80;11.07;;;18.50;99.90;;;;;;5011984;28;20454;-73
2023/06/10 05:33:29;;;;;;;14.50;10.43;;;18.70;99.90;;;;;;5011229;28;20482;-71
2023/06/10 05:35:56;;;;;;;13.33;9.80;;;18.90;99.90;;;;;;5014605;28;20425;-71
2023/06/10 05:41:47;;;;;;;11.27;10.10;;;19.00;99.90;;;;;;5007331;28;20410;-71
2023/06/10 05:44:13;;;;;;;13.77;9.73;;;19.20;99.90;;;;;;5009173;28;20446;-72
2023/06/10 05:46:40;;;;;;;16.77;9.67;;;19.30;99.90;;;;;;5008541;28;20505;-72
2023/06/10 05:49:07;;;;;;;14.70;11.03;;;19.40;99.90;;;;;;5004432;28;20537;-72
2023/06/10 05:51:33;;;;;;;16.00;10.00;;;19.60;99.90;;;;;;5012388;28;21274;-72
2023/06/10 05:54:00;;;;;;;11.10;10.00;;;19.80;99.90;;;;;;5011114;28;20532;-72
2023/06/10 05:56:27;;;;;;;10.60;9.50;;;19.90;99.90;;;;;;5008637;28;20438;-72
2023/06/10 05:58:55;;;;;;;13.03;10.10;;;20.00;99.90;;;;;;5008714;28;20429;-72
2023/06/10 06:01:21;;;;;;;13.63;10.80;;;20.20;99.90;;;;;;5006821;28;20676;-72
2023/06/10 06:03:48;;;;;;;11.37;9.30;;;20.30;99.90;;;;;;5013605;28;21067;-72
2023/06/10 06:06:14;;;;;;;10.90;9.70;;;20.50;99.90;;;;;;5012313;28;20471;-72
2023/06/10 06:08:41;;;;;;;10.53;9.43;;;20.60;99.90;;;;;;5009375;28;20970;-72
2023/06/10 06:11:08;;;;;;;11.23;9.23;;;20.80;99.90;;;;;;5010193;28;20437;-72
2023/06/10 06:13:35;;;;;;;12.73;10.50;;;20.90;99.90;;;;;;5008215;28;20453;-72
2023/06/10 06:16:03;;;;;;;14.03;9.50;;;21.10;99.90;;;;;;4998814;28;20489;-72
2023/06/10 06:18:29;;;;;;;10.97;9.87;;;21.30;99.90;;;;;;5011046;28;20879;-72
2023/06/10 06:20:56;;;;;;;11.30;9.20;;;21.40;99.90;;;;;;5011406;28;20557;-72
2023/06/10 06:23:23;;;;;;;10.90;8.90;;;21.60;99.90;;;;;;5006721;28;20855;-72
2023/06/10 06:25:49;;;;;;;15.03;8.93;;;21.60;99.90;;;;;;5011003;28;20508;-72
2023/06/10 06:28:16;;;;;;;17.27;9.17;;;21.80;99.90;;;;;;5004321;28;20571;-72
2023/06/10 06:30:42;;;;;;;12.27;9.30;;;21.80;99.90;;;;;;5005561;28;20453;-73
2023/06/10 06:33:10;;;;;;;12.43;9.07;;;22.00;99.90;;;;;;5011616;28;20519;-73
2023/06/10 06:35:38;;;;;;;11.80;8.33;;;22.00;99.90;;;;;;5009861;28;20973;-72
2023/06/10 06:38:04;;;;;;;10.70;8.60;;;22.20;99.90;;;;;;5002249;28;20506;-72
2023/06/10 06:40:31;;;;;;;9.10;8.17;;;22.30;99.90;;;;;;5006760;28;20454;-72
2023/06/10 06:42:58;;;;;;;12.37;8.77;;;22.60;99.90;;;;;;5011645;28;20524;-73
2023/06/10 06:45:24;;;;;;;11.50;9.67;;;22.60;99.90;;;;;;5005902;28;20523;-72
2023/06/10 06:47:51;;;;;;;12.33;8.53;;;22.70;99.90;;;;;;5000669;28;20542;-73
2023/06/10 06:50:19;;;;;;;8.93;8.00;;;22.80;99.90;;;;;;5006102;28;20455;-69
2023/06/10 06:52:45;;;;;;;11.97;8.80;;;22.80;99.90;;;;;;5009344;28;20466;-71
2023/06/10 06:55:12;;;;;;;9.73;8.73;;;22.90;99.90;;;;;;5004241;28;20962;-71
2023/06/10 06:57:39;;;;;;;10.00;8.90;;;23.10;99.90;;;;;;5010815;28;20761;-71
2023/06/10 07:00:08;;;;;;;10.03;8.50;;;23.20;99.90;;;;;;5007518;28;20886;-71
2023/06/10 07:02:35;;;;;;;9.03;8.10;;;23.30;99.90;;;;;;5007134;28;20474;-71
2023/06/10 07:05:03;;;;;;;13.63;8.83;;;23.40;99.90;;;;;;5007558;28;20450;-71
2023/06/10 07:07:31;;;;;;;14.40;8.70;;;23.40;99.90;;;;;;4998882;28;20521;-71
2023/06/10 07:09:57;;;;;;;14.97;8.57;;;23.50;99.90;;;;;;5008032;28;20541;-71
2023/06/10 07:12:24;;;;;;;12.07;8.57;;;23.80;99.90;;;;;;5013071;28;20509;-72
2023/06/10 07:14:51;;;;;;;9.10;7.70;;;23.80;99.90;;;;;;5010811;28;20516;-70
2023/06/10 07:17:18;;;;;;;7.70;7.00;;;24.00;99.90;;;;;;5010942;28;20530;-71
2023/06/10 07:19:45;;;;;;;14.03;8.60;;;24.10;99.90;;;;;;4993524;28;20447;-71
2023/06/10 07:22:11;;;;;;;14.13;8.10;;;24.30;99.90;;;;;;5006514;28;20470;-71
2023/06/10 07:24:40;;;;;;;10.73;8.63;;;24.50;99.90;;;;;;5001950;28;20518;-71
2023/06/10 07:27:07;;;;;;;10.30;7.80;;;24.60;99.90;;;;;;4996565;28;20514;-71
2023/06/10 07:29:35;;;;;;;9.90;7.60;;;24.80;99.90;;;;;;5005790;28;20560;-71
2023/06/10 07:32:02;;;;;;;16.50;7.77;;;24.90;99.90;;;;;;5001715;28;20471;-71
2023/06/10 07:34:28;;;;;;;10.60;8.20;;;25.10;99.90;;;;;;4993437;28;20510;-71
2023/06/10 07:36:55;;;;;;;9.57;7.23;;;25.20;99.90;;;;;;5004355;28;20895;-72
2023/06/10 07:39:22;;;;;;;8.53;7.63;;;25.40;99.90;;;;;;4994107;28;20443;-72
2023/06/10 07:41:50;;;;;;;12.03;7.77;;;25.60;99.90;;;;;;4998557;28;20553;-70
2023/06/10 07:44:16;;;;;;;10.17;7.70;;;25.70;99.90;;;;;;4993074;28;20447;-70
2023/06/10 07:46:43;;;;;;;14.07;9.07;;;25.70;99.90;;;;;;5007072;28;20458;-70
2023/06/10 07:49:09;;;;;;;9.10;7.87;;;25.80;99.90;;;;;;5010800;28;20489;-70
2023/06/10 07:51:36;;;;;;;12.20;8.60;;;25.80;99.90;;;;;;5012144;28;20996;-70
2023/06/10 07:54:03;;;;;;;9.43;7.40;;;25.80;99.90;;;;;;5012634;28;20825;-71
2023/06/10 07:56:29;;;;;;;9.07;7.43;;;26.00;99.90;;;;;;5012307;28;20512;-70
2023/06/10 07:58:57;;;;;;;12.13;7.27;;;26.10;99.90;;;;;;5012492;28;20857;-70
2023/06/10 08:01:24;;;;;;;13.57;7.97;;;26.20;99.90;;;;;;5009051;28;20512;-70
2023/06/10 08:03:51;;;;;;;13.50;6.87;;;26.40;99.90;;;;;;5001124;28;20474;-70
2023/06/10 08:06:18;;;;;;;11.07;7.60;;;26.50;99.90;;;;;;4998069;28;20502;-70
2023/06/10 08:08:45;;;;;;;9.97;6.97;;;26.60;99.90;;;;;;5005702;28;20486;-71
2023/06/10 08:11:12;;;;;;;13.57;7.03;;;26.70;99.90;;;;;;5006515;28;20887;-70
2023/06/10 08:13:39;;;;;;;11.47;7.23;;;26.90;99.90;;;;;;4992629;28;20533;-71
2023/06/10 08:16:07;;;;;;;10.13;6.93;;;27.00;99.90;;;;;;5000257;28;20460;-71
2023/06/10 08:18:34;;;;;;;9.77;7.00;;;27.10;99.90;;;;;;5012314;28;20449;-70
2023/06/10 08:21:01;;;;;;;10.60;7.53;;;27.10;99.90;;;;;;5011600;28;20453;-70
2023/06/10 08:23:27;;;;;;;10.60;6.90;;;27.10;99.90;;;;;;4993119;28;20475;-71
2023/06/10 08:25:54;;;;;;;8.83;6.90;;;27.00;99.90;;;;;;4995325;28;20451;-70
2023/06/10 08:28:21;;;;;;;9.33;7.17;;;27.00;99.90;;;;;;4992713;28;20521;-71
2023/06/10 08:30:47;;;;;;;9.37;7.50;;;27.20;99.90;;;;;;5011338;28;20470;-71
2023/06/10 08:33:15;;;;;;;10.30;6.77;;;27.30;99.90;;;;;;4999758;28;20482;-71
2023/06/10 08:35:42;;;;;;;10.57;7.17;;;27.40;99.90;;;;;;5009371;28;20462;-72
2023/06/10 08:38:08;;;;;;;9.73;7.10;;;27.60;99.90;;;;;;5004378;28;20459;-72
2023/06/10 08:40:35;;;;;;;8.70;6.87;;;27.70;99.90;;;;;;5004796;28;20459;-70
2023/06/10 08:43:07;;;;;;;11.97;7.07;;;27.90;99.90;;;;;;5007909;28;21017;-70
2023/06/10 08:45:36;;;;;;;9.73;7.03;;;28.00;99.90;;;;;;5004022;28;20978;-71
2023/06/10 08:48:06;;;;;;;9.33;7.30;;;28.20;99.90;;;;;;5008350;28;20493;-71
2023/06/10 08:50:36;;;;;;;7.30;6.60;;;28.30;99.90;;;;;;5009601;28;20494;-70
2023/06/10 08:53:04;;;;;;;11.83;6.73;;;28.30;99.90;;;;;;5009468;28;20601;-69
2023/06/10 08:55:33;;;;;;;8.80;7.60;;;28.40;99.90;;;;;;5005945;28;20467;-70
2023/06/10 08:58:01;;;;;;;9.40;7.20;;;28.60;99.90;;;;;;5010312;28;20955;-70
2023/06/10 09:00:28;;;;;;;7.67;6.87;;;28.70;99.90;;;;;;5005172;28;20450;-70
2023/06/10 09:02:56;;;;;;;11.70;6.87;;;28.80;99.90;;;;;;5003817;28;20471;-70
2023/06/10 09:05:23;;;;;;;10.93;7.17;;;29.10;99.90;;;;;;5007030;28;20454;-70
2023/06/10 09:07:53;;;;;;;8.43;6.90;;;29.20;99.90;;;;;;5009712;28;20520;-70
2023/06/10 09:10:20;;;;;;;11.43;7.20;;;29.40;99.90;;;;;;5008208;28;20556;-70
2023/06/10 09:12:47;;;;;;;12.00;7.30;;;29.50;99.90;;;;;;5001769;28;20487;-70
2023/06/10 09:15:14;;;;;;;11.37;6.63;;;29.60;99.90;;;;;;4988950;28;20451;-69
2023/06/10 09:17:41;;;;;;;9.80;7.10;;;29.70;99.90;;;;;;4991010;28;20455;-70
2023/06/10 09:20:09;;;;;;;9.43;7.30;;;29.70;99.90;;;;;;4990831;28;20969;-70
2023/06/10 09:22:36;;;;;;;8.20;7.03;;;29.70;99.90;;;;;;4984223;28;20479;-70
2023/06/10 09:25:08;;;;;;;10.03;6.57;;;29.70;99.90;;;;;;4990850;28;20463;-70
2023/06/10 09:27:45;;;;;;;11.07;7.03;;;29.70;99.90;;;;;;4990297;28;20450;-70
2023/06/10 09:30:26;;;;;;;8.60;6.10;;;29.60;99.90;;;;;;4990229;28;20457;-72
2023/06/10 09:32:53;;;;;;;8.77;6.83;;;29.70;99.90;;;;;;4984993;28;20474;-70
2023/06/10 09:35:20;;;;;;;8.63;6.97;;;29.90;99.90;;;;;;4991687;28;20454;-73
2023/06/10 09:37:47;;;;;;;12.00;7.20;;;29.70;99.90;;;;;;4990158;28;20451;-70
2023/06/10 09:40:15;;;;;;;9.50;7.50;;;29.70;99.90;;;;;;4991011;28;20502;-70
2023/06/10 09:42:41;;;;;;;7.60;6.43;;;29.90;99.90;;;;;;4991542;28;20827;-70
2023/06/10 09:45:09;;;;;;;13.97;6.33;;;29.80;99.90;;;;;;4985278;28;20463;-70
2023/06/10 09:47:35;;;;;;;7.10;6.50;;;29.90;99.90;;;;;;4987271;28;20455;-70
2023/06/10 09:50:03;;;;;;;10.27;6.80;;;29.90;99.90;;;;;;4986334;28;21011;-69
2023/06/10 09:52:30;;;;;;;8.10;6.80;;;29.80;99.90;;;;;;4988201;28;20503;-70
2023/06/10 09:55:01;;;;;;;7.90;6.33;;;29.80;99.90;;;;;;4991078;28;20967;-70
2023/06/10 09:57:33;;;;;;;7.93;7.17;;;29.60;99.90;;;;;;4990274;28;20454;-70
2023/06/10 10:00:00;;;;;;;8.20;5.50;;;29.60;99.90;;;;;;4989118;28;20459;-70
2023/06/10 10:02:27;;;;;;;10.40;7.17;;;30.00;99.90;;;;;;4987610;28;20537;-71
2023/06/10 10:04:53;;;;;;;7.40;6.63;;;30.20;99.90;;;;;;4988823;28;20467;-70
2023/06/10 10:07:20;;;;;;;7.87;6.83;;;30.20;99.90;;;;;;4989606;28;20518;-70
2023/06/10 10:09:47;;;;;;;10.90;6.80;;;30.10;99.90;;;;;;4988572;28;20622;-70
2023/06/10 10:12:16;;;;;;;7.10;6.17;;;29.80;99.90;;;;;;4990727;28;21046;-71
2023/06/10 10:14:47;;;;;;;7.90;6.30;;;29.80;99.90;;;;;;4990205;28;20451;-71
2023/06/10 10:17:16;;;;;;;8.97;6.53;;;29.90;99.90;;;;;;4993482;28;20866;-70
2023/06/10 10:19:49;;;;;;;8.33;7.07;;;30.10;99.90;;;;;;4993893;28;20518;-70
2023/06/10 10:22:22;;;;;;;8.07;6.40;;;30.30;99.90;;;;;;4993042;28;20478;-70
2023/06/10 10:24:51;;;;;;;12.43;6.90;;;30.30;99.90;;;;;;4992347;28;20466;-70
2023/06/10 10:27:22;;;;;;;11.43;6.40;;;30.40;99.90;;;;;;4994309;28;20526;-70
2023/06/10 10:29:53;;;;;;;7.00;6.37;;;30.60;99.90;;;;;;4990199;28;20986;-69
2023/06/10 10:32:22;;;;;;;7.23;6.40;;;30.60;99.90;;;;;;4993372;28;20479;-70
2023/06/10 10:34:54;;;;;;;10.23;6.60;;;30.30;99.90;;;;;;4994280;28;20488;-71
2023/06/10 10:37:21;;;;;;;6.93;6.10;;;30.30;99.90;;;;;;4993667;28;20467;-70
2023/06/10 10:39:48;;;;;;;10.83;5.40;;;30.30;99.90;;;;;;4994124;28;20510;-72
2023/06/10 10:42:16;;;;;;;9.77;5.20;;;30.30;99.90;;;;;;4992782;28;20448;-70
2023/06/10 10:44:43;;;;;;;15.10;6.43;;;30.30;99.90;;;;;;4994124;28;20207;-69
2023/06/10 10:47:14;;;;;;;6.90;5.65;;;30.40;99.90;;;;;;4990885;28;20449;-70
2023/06/10 10:49:43;;;;;;;9.95;5.43;;;30.60;99.90;;;;;;4992823;28;20945;-71
2023/06/10 10:52:13;;;;;;;6.50;5.80;;;30.70;99.90;;;;;;4993893;28;20227;-72
2023/06/10 10:54:44;;;;;;;8.47;5.97;;;30.90;99.90;;;;;;4993616;28;20471;-71
2023/06/10 10:57:15;;;;;;;6.80;5.80;;;31.00;99.90;;;;;;4992908;28;20982;-72
2023/06/10 10:59:47;;;;;;;8.27;5.80;;;31.00;99.90;;;;;;4991500;28;20454;-74
2023/06/10 11:02:19;;;;;;;8.50;5.23;;;30.80;99.90;;;;;;4992493;28;20533;-73
2023/06/10 11:04:47;;;;;;;5.47;4.97;;;30.50;99.50;;;;;;4993529;28;20466;-74
2023/06/10 11:07:15;;;;;;;6.80;5.70;;;30.40;99.90;;;;;;4993320;28;20944;-74
2023/06/10 11:09:59;;;;;;;9.83;5.13;;;30.50;99.60;;;;;;4989568;28;21003;-73
2023/06/10 11:12:26;;;;;;;12.63;5.50;;;30.50;97.20;;;;;;4993413;28;20490;-73
2023/06/10 11:14:56;;;;;;;6.07;5.53;;;30.50;97.60;;;;;;4993533;28;20463;-71
2023/06/10 11:17:25;;;;;;;8.33;5.30;;;30.50;96.80;;;;;;4992109;28;20463;-72
2023/06/10 11:19:51;;;;;;;7.23;4.80;;;30.50;95.70;;;;;;4992913;28;20455;-72
2023/06/10 11:22:18;;;;;;;6.53;5.90;;;30.40;95.20;;;;;;4992281;28;20475;-69
2023/06/10 11:24:48;;;;;;;12.43;4.80;;;30.20;95.40;;;;;;4992205;28;20863;-70
2023/06/10 11:27:17;;;;;;;8.10;4.40;;;30.30;94.90;;;;;;4991384;28;20456;-70
2023/06/10 11:29:57;;;;;;;9.50;4.37;;;30.40;95.60;;;;;;4986183;28;20772;-71
2023/06/10 11:32:29;;;;;;;5.70;5.10;;;30.80;96.30;;;;;;4992273;28;20483;-71
2023/06/10 11:34:57;;;;;;;7.70;4.83;;;30.90;94.80;;;;;;4991745;28;20447;-67
2023/06/10 11:37:23;;;;;;;5.70;4.60;;;30.90;93.70;;;;;;4992750;28;20869;-69
2023/06/10 11:39:53;;;;;;;8.30;5.17;;;30.90;93.70;;;;;;4992657;28;20453;-72
2023/06/10 11:42:20;;;;;;;9.50;4.80;;;30.80;93.20;;;;;;4991630;28;20445;-72
2023/06/10 11:44:49;;;;;;;7.73;5.50;;;30.80;93.00;;;;;;4993114;28;20212;-70
2023/06/10 11:47:16;;;;;;;6.17;5.57;;;30.70;93.50;;;;;;4992378;28;20866;-71
2023/06/10 11:49:45;;;;;;;6.80;4.50;;;30.60;93.00;;;;;;4990398;28;20564;-71
2023/06/10 11:52:12;;;;;;;5.63;5.00;;;30.50;93.60;;;;;;4992624;28;20479;-71
2023/06/10 11:54:38;;;;;;;6.40;4.97;;;30.40;92.90;;;;;;4989747;28;20553;-71
2023/06/10 11:57:08;;;;;;;9.70;5.37;;;30.60;93.20;;;;;;4992111;28;20455;-71
2023/06/10 11:59:34;;;;;;;7.87;5.20;;;30.70;93.50;;;;;;4990816;28;20518;-72
2023/06/10 12:02:01;;;;;;;5.73;5.13;;;31.00;93.70;;;;;;4992497;28;20463;-72
2023/06/10 12:04:28;;;;;;;11.20;5.70;;;31.20;93.70;;;;;;4991272;28;20843;-71
2023/06/10 12:06:56;;;;;;;7.30;5.43;;;31.20;93.80;;;;;;4992645;28;20460;-70
2023/06/10 12:09:24;;;;;;;10.32;4.80;;;30.60;94.10;;;;;;4988909;28;20519;-70
2023/06/10 12:11:52;;;;;;;12.80;4.90;;;30.50;94.40;;;;;;4991284;28;20278;-70
2023/06/10 12:14:57;;;;;;;7.20;5.57;;;30.50;93.60;;;;;;4991183;28;20969;-70
2023/06/10 12:17:25;;;;;;;6.50;5.27;;;30.50;93.60;;;;;;4990242;28;20521;-70
2023/06/10 12:19:51;;;;;;;7.73;5.57;;;30.50;93.80;;;;;;4984988;28;20455;-72
2023/06/10 12:22:20;;;;;;;11.73;5.50;;;30.60;94.80;;;;;;4987919;28;20518;-71
2023/06/10 12:24:59;;;;;;;6.33;5.50;;;30.60;93.80;;;;;;4988437;28;20227;-71
2023/06/10 12:27:25;;;;;;;4.90;4.50;;;30.70;94.50;;;;;;4990325;28;20426;-69
2023/06/10 12:29:54;;;;;;;6.00;5.40;;;30.90;94.20;;;;;;4989844;28;20216;-70
2023/06/10 12:32:22;;;;;;;10.97;5.50;;;30.50;93.10;;;;;;4991621;28;20483;-70
2023/06/10 12:34:49;;;;;;;8.27;4.70;;;30.40;94.00;;;;;;4991083;28;21106;-70
2023/06/10 12:37:16;;;;;;;8.30;5.60;;;30.70;96.00;;;;;;4987579;28;20204;-70
2023/06/10 12:39:53;;;;;;;9.73;5.50;;;31.10;95.60;;;;;;4989634;28;20478;-70
2023/06/10 12:42:23;;;;;;;7.60;5.17;;;31.40;95.20;;;;;;4990416;28;20474;-70